^^
Your Local Weather - Clay, NY Station Historical Data
Daily Summary for February 26, 2017 Units:  English    Metric   Both
« Previous Day
Next Day »
Daily Weekly Monthly Yearly Custom
  High: Low: Average:
Temperature: 33.2 °F 26.0 °F 30.4 °F
Dew Point: 25.8 °F 15.5 °F 20.7 °F
Humidity: 89% 54% 67%
Wind Speed: 7.0mph 0.0mph 3.5mph
Wind Gust: 18.0mph - -
Wind- - West
Pressure: 30.11 in 29.71 in -
Precipitation: 0.07 in    
Historical Graphs
 
 
Tabular Data for February 26, 2017
Time Temperature Dew Point Pressure Wind Wind Speed Wind Gust Humidity Rainfall Rate (Hourly) solar
00:04 32.8 °F 25.1 °F 29.71 in WNW 6.0 mph 11.0 mph 73% 0.00 in 0 W/m2
00:09 32.8 °F 25.1 °F 29.71 in WNW 5.0 mph 5.0 mph 73% 0.00 in 0 W/m2
00:15 32.8 °F 24.8 °F 29.71 in NW 5.0 mph 6.0 mph 72% 0.00 in 0 W/m2
00:22 32.8 °F 24.1 °F 29.71 in WNW 5.0 mph 6.0 mph 70% 0.00 in 0 W/m2
00:28 32.7 °F 23.3 °F 29.71 in NW 5.0 mph 6.0 mph 68% 0.00 in 0 W/m2
00:33 32.6 °F 22.8 °F 29.72 in WNW 5.0 mph 5.0 mph 67% 0.00 in 0 W/m2
00:39 32.5 °F 23.1 °F 29.72 in WNW 4.0 mph 6.0 mph 68% 0.00 in 0 W/m2
00:45 32.6 °F 22.1 °F 29.72 in WNW 5.0 mph 8.0 mph 65% 0.00 in 0 W/m2
00:52 32.6 °F 21.8 °F 29.73 in West 5.0 mph 6.0 mph 64% 0.00 in 0 W/m2
00:58 32.5 °F 21.7 °F 29.73 in NW 6.0 mph 7.0 mph 64% 0.00 in 0 W/m2
01:04 32.5 °F 22.4 °F 29.73 in NW 5.0 mph 11.0 mph 66% 0.00 in 0 W/m2
01:10 32.4 °F 20.8 °F 29.73 in WNW 6.0 mph 6.0 mph 62% 0.00 in 0 W/m2
01:16 32.3 °F 20.7 °F 29.73 in WNW 7.0 mph 8.0 mph 62% 0.00 in 0 W/m2
01:22 32.2 °F 20.6 °F 29.74 in NW 5.0 mph 6.0 mph 62% 0.00 in 0 W/m2
01:28 32.1 °F 20.9 °F 29.74 in SW 6.0 mph 10.0 mph 63% 0.00 in 0 W/m2
01:34 31.9 °F 20.3 °F 29.74 in WNW 7.0 mph 8.0 mph 62% 0.00 in 0 W/m2
01:40 31.9 °F 20.0 °F 29.74 in WNW 7.0 mph 8.0 mph 61% 0.00 in 0 W/m2
01:46 31.9 °F 20.3 °F 29.74 in WNW 7.0 mph 9.0 mph 62% 0.00 in 0 W/m2
01:52 31.8 °F 19.9 °F 29.74 in WNW 7.0 mph 9.0 mph 61% 0.00 in 0 W/m2
01:58 31.8 °F 19.9 °F 29.74 in WNW 7.0 mph 18.0 mph 61% 0.00 in 0 W/m2
02:04 31.7 °F 19.8 °F 29.74 in West 6.0 mph 8.0 mph 61% 0.00 in 0 W/m2
02:10 31.6 °F 19.7 °F 29.75 in WNW 6.0 mph 6.0 mph 61% 0.00 in 0 W/m2
02:16 31.5 °F 20.0 °F 29.75 in NW 6.0 mph 6.0 mph 62% 0.00 in 0 W/m2
02:22 31.4 °F 19.9 °F 29.76 in WSW 6.0 mph 6.0 mph 62% 0.00 in 0 W/m2
02:28 31.3 °F 19.8 °F 29.76 in West 6.0 mph 10.0 mph 62% 0.00 in 0 W/m2
02:36 31.1 °F 20.0 °F 29.76 in WSW 7.0 mph 9.0 mph 63% 0.00 in 0 W/m2
02:42 31.1 °F 20.0 °F 29.76 in West 6.0 mph 9.0 mph 63% 0.00 in 0 W/m2
02:48 31.0 °F 20.2 °F 29.77 in West 5.0 mph 12.0 mph 64% 0.00 in 0 W/m2
02:54 31.0 °F 19.9 °F 29.76 in West 6.0 mph 12.0 mph 63% 0.00 in 0 W/m2
03:00 31.0 °F 19.9 °F 29.77 in West 6.0 mph 6.0 mph 63% 0.00 in 0 W/m2
03:06 30.9 °F 20.1 °F 29.77 in WNW 5.0 mph 8.0 mph 64% 0.00 in 0 W/m2
03:12 30.9 °F 20.1 °F 29.77 in WNW 5.0 mph 5.0 mph 64% 0.00 in 0 W/m2
03:18 30.9 °F 20.1 °F 29.77 in West 5.0 mph 7.0 mph 64% 0.00 in 0 W/m2
03:24 30.9 °F 19.4 °F 29.77 in WNW 5.0 mph 7.0 mph 62% 0.00 in 0 W/m2
03:30 30.9 °F 19.0 °F 29.77 in West 6.0 mph 6.0 mph 61% 0.00 in 0 W/m2
03:36 30.8 °F 18.9 °F 29.78 in West 5.0 mph 12.0 mph 61% 0.00 in 0 W/m2
03:42 30.8 °F 18.9 °F 29.78 in WSW 5.0 mph 5.0 mph 61% 0.00 in 0 W/m2
03:48 30.8 °F 18.9 °F 29.79 in WSW 6.0 mph 8.0 mph 61% 0.00 in 0 W/m2
03:54 30.7 °F 18.4 °F 29.79 in WNW 6.0 mph 12.0 mph 60% 0.00 in 0 W/m2
04:00 30.7 °F 18.4 °F 29.79 in WNW 7.0 mph 7.0 mph 60% 0.00 in 0 W/m2
04:06 30.6 °F 18.7 °F 29.80 in WNW 6.0 mph 7.0 mph 61% 0.00 in 0 W/m2
04:12 30.6 °F 19.1 °F 29.81 in WSW 6.0 mph 8.0 mph 62% 0.00 in 0 W/m2
04:18 30.5 °F 18.6 °F 29.81 in West 6.0 mph 8.0 mph 61% 0.00 in 0 W/m2
04:24 30.5 °F 19.0 °F 29.81 in WNW 5.0 mph 8.0 mph 62% 0.00 in 0 W/m2
04:30 30.4 °F 18.9 °F 29.81 in WNW 5.0 mph 8.0 mph 62% 0.00 in 0 W/m2
04:36 30.2 °F 19.5 °F 29.82 in West 6.0 mph 11.0 mph 64% 0.00 in 0 W/m2
04:42 29.9 °F 19.9 °F 29.83 in West 7.0 mph 14.0 mph 66% 0.00 in 0 W/m2
04:48 29.6 °F 20.0 °F 29.83 in NW 6.0 mph 14.0 mph 67% 0.00 in 0 W/m2
04:54 29.6 °F 20.3 °F 29.84 in WNW 5.0 mph 7.0 mph 68% 0.00 in 0 W/m2
05:00 28.9 °F 21.3 °F 29.84 in WSW 6.0 mph 6.0 mph 73% 0.00 in 0 W/m2
05:06 28.4 °F 21.8 °F 29.84 in West 5.0 mph 9.0 mph 76% 0.00 in 0 W/m2
05:12 28.0 °F 22.0 °F 29.84 in West 6.0 mph 7.0 mph 78% 0.00 in 0 W/m2
05:18 27.9 °F 22.2 °F 29.85 in West 6.0 mph 7.0 mph 79% 0.00 in 0 W/m2
05:24 28.1 °F 22.1 °F 29.85 in West 6.0 mph 7.0 mph 78% 0.00 in 0 W/m2
05:30 28.3 °F 22.0 °F 29.85 in WNW 5.0 mph 6.0 mph 77% 0.00 in 0 W/m2
05:36 28.6 °F 21.4 °F 29.86 in West 6.0 mph 6.0 mph 74% 0.00 in 0 W/m2
05:42 28.9 °F 20.7 °F 29.86 in SW 6.0 mph 12.0 mph 71% 0.00 in 0 W/m2
05:48 29.1 °F 20.5 °F 29.86 in West 6.0 mph 12.0 mph 70% 0.00 in 0 W/m2
05:54 29.2 °F 20.3 °F 29.86 in WNW 5.0 mph 6.0 mph 69% 0.00 in 0 W/m2
06:00 29.2 °F 19.9 °F 29.87 in WNW 5.0 mph 5.0 mph 68% 0.00 in 0 W/m2
06:06 29.2 °F 19.6 °F 29.87 in West 5.0 mph 5.0 mph 67% 0.00 in 0 W/m2
06:12 29.3 °F 19.3 °F 29.87 in NW 6.0 mph 6.0 mph 66% 0.00 in 0 W/m2
06:18 29.3 °F 19.3 °F 29.87 in West 6.0 mph 6.0 mph 66% 0.00 in 0 W/m2
06:24 29.3 °F 19.3 °F 29.87 in WNW 6.0 mph 6.0 mph 66% 0.00 in 0 W/m2
06:30 29.2 °F 18.9 °F 29.87 in NW 5.0 mph 5.0 mph 65% 0.00 in 0 W/m2
06:36 29.3 °F 19.0 °F 29.87 in West 6.0 mph 6.0 mph 65% 0.00 in 0 W/m2
06:42 29.3 °F 18.6 °F 29.88 in NW 5.0 mph 10.0 mph 64% 0.00 in 0 W/m2
06:54 29.5 °F 18.1 °F 29.89 in NW 4.0 mph 6.0 mph 62% 0.00 in 0 W/m2
07:00 29.6 °F 17.8 °F 29.89 in West 6.0 mph 11.0 mph 61% 0.00 in 7 W/m2
07:06 29.7 °F 16.3 °F 29.89 in WNW 7.0 mph 11.0 mph 57% 0.00 in 11 W/m2
07:12 29.7 °F 15.5 °F 29.89 in WSW 7.0 mph 10.0 mph 55% 0.00 in 11 W/m2
07:18 29.7 °F 15.9 °F 29.91 in WNW 7.0 mph 10.0 mph 56% 0.00 in 14 W/m2
07:24 29.6 °F 16.6 °F 29.91 in NW 5.0 mph 6.0 mph 58% 0.00 in 19 W/m2
07:30 29.6 °F 16.6 °F 29.91 in West 6.0 mph 9.0 mph 58% 0.00 in 23 W/m2
07:36 29.6 °F 16.6 °F 29.92 in NW 6.0 mph 10.0 mph 58% 0.00 in 32 W/m2
07:42 29.7 °F 16.7 °F 29.92 in West 5.0 mph 9.0 mph 58% 0.00 in 56 W/m2
07:48 29.8 °F 16.8 °F 29.93 in WNW 4.0 mph 9.0 mph 58% 0.00 in 46 W/m2
07:54 29.4 °F 19.8 °F 29.94 in NW 5.0 mph 6.0 mph 67% 0.00 in 44 W/m2
08:00 28.8 °F 20.2 °F 29.94 in WNW 5.0 mph 7.0 mph 70% 0.00 in 49 W/m2
08:06 28.9 °F 20.0 °F 29.94 in WNW 4.0 mph 7.0 mph 69% 0.00 in 98 W/m2
08:12 29.4 °F 19.8 °F 29.95 in NW 4.0 mph 5.0 mph 67% 0.00 in 53 W/m2
08:18 29.5 °F 19.9 °F 29.95 in NW 4.0 mph 6.0 mph 67% 0.00 in 74 W/m2
08:24 29.6 °F 19.3 °F 29.95 in WNW 4.0 mph 4.0 mph 65% 0.00 in 60 W/m2
08:30 29.6 °F 18.9 °F 29.95 in NW 4.0 mph 4.0 mph 64% 0.00 in 53 W/m2
08:36 29.2 °F 18.9 °F 29.96 in NW 6.0 mph 13.0 mph 65% 0.00 in 58 W/m2
08:42 29.3 °F 19.3 °F 29.96 in WNW 5.0 mph 6.0 mph 66% 0.00 in 65 W/m2
08:48 29.3 °F 19.7 °F 29.96 in NNW 5.0 mph 6.0 mph 67% 0.00 in 97 W/m2
08:54 29.5 °F 19.9 °F 29.97 in WNW 4.0 mph 5.0 mph 67% 0.00 in 98 W/m2
09:00 29.5 °F 20.9 °F 29.97 in NW 4.0 mph 4.0 mph 70% 0.00 in 142 W/m2
09:06 29.5 °F 21.9 °F 29.97 in WNW 3.0 mph 4.0 mph 73% 0.00 in 130 W/m2
09:12 29.2 °F 21.6 °F 29.98 in NNW 3.0 mph 4.0 mph 73% 0.00 in 91 W/m2
09:18 28.8 °F 21.6 °F 29.98 in NW 5.0 mph 5.0 mph 74% 0.00 in 56 W/m2
09:24 28.3 °F 21.7 °F 29.98 in WNW 4.0 mph 5.0 mph 76% 0.00 in 76 W/m2
09:30 28.0 °F 22.6 °F 29.98 in WNW 4.0 mph 4.0 mph 80% 0.00 in 84 W/m2
09:36 27.6 °F 23.1 °F 29.99 in WNW 3.0 mph 5.0 mph 83% 0.00 in 60 W/m2
09:42 27.2 °F 23.3 °F 29.99 in WNW 3.0 mph 5.0 mph 85% 0.00 in 39 W/m2
09:48 26.9 °F 23.3 °F 29.99 in WNW 2.0 mph 5.0 mph 86% 0.00 in 60 W/m2
09:54 27.1 °F 23.7 °F 29.99 in WNW 2.0 mph 4.0 mph 87% 0.00 in 128 W/m2
10:00 27.3 °F 24.2 °F 29.99 in NW 2.0 mph 2.0 mph 88% 0.00 in 67 W/m2
10:06 27.3 °F 24.2 °F 30.00 in NW 2.0 mph 2.0 mph 88% 0.00 in 53 W/m2
10:12 27.3 °F 24.2 °F 30.00 in NW 1.0 mph 3.0 mph 88% 0.00 in 49 W/m2
10:18 27.3 °F 24.2 °F 30.00 in NW 1.0 mph 3.0 mph 88% 0.00 in 47 W/m2
10:24 27.3 °F 24.2 °F 30.00 in West 1.0 mph 2.0 mph 88% 0.00 in 47 W/m2
10:30 27.3 °F 24.2 °F 30.00 in WSW 1.0 mph 1.0 mph 88% 0.00 in 62 W/m2
10:36 27.4 °F 24.3 °F 30.00 in WNW 1.0 mph 2.0 mph 88% 0.00 in 67 W/m2
10:42 27.4 °F 24.6 °F 30.00 in NW 2.0 mph 2.0 mph 89% 0.00 in 60 W/m2
10:48 27.7 °F 24.9 °F 30.00 in NW 2.0 mph 2.0 mph 89% 0.00 in 113 W/m2
10:54 28.3 °F 25.5 °F 30.00 in NW 1.0 mph 3.0 mph 89% 0.00 in 141 W/m2
11:00 28.8 °F 25.7 °F 30.01 in WNW 3.0 mph 5.0 mph 88% 0.00 in 141 W/m2
11:06 28.9 °F 25.2 °F 30.01 in NNW 3.0 mph 5.0 mph 86% 0.00 in 149 W/m2
11:12 29.7 °F 25.7 °F 30.01 in NW 2.0 mph 3.0 mph 85% 0.00 in 243 W/m2
11:18 30.3 °F 25.8 °F 30.01 in WNW 3.0 mph 6.0 mph 83% 0.12 in 418 W/m2
11:24 30.3 °F 25.2 °F 30.01 in NNW 3.0 mph 5.0 mph 81% 0.11 in 186 W/m2
11:30 30.7 °F 25.3 °F 30.01 in NW 4.0 mph 4.0 mph 80% 0.07 in 366 W/m2
11:36 30.9 °F 25.2 °F 30.01 in NNW 3.0 mph 4.0 mph 79% 0.07 in 594 W/m2
11:42 30.8 °F 24.7 °F 30.01 in NNW 3.0 mph 5.0 mph 78% 0.06 in 229 W/m2
11:48 31.9 °F 25.2 °F 30.01 in NNW 4.0 mph 7.0 mph 76% 0.05 in 831 W/m2
11:54 31.6 °F 24.3 °F 30.01 in NW 4.0 mph 6.0 mph 74% 0.00 in 258 W/m2
12:00 30.9 °F 23.9 °F 30.01 in NNW 4.0 mph 4.0 mph 75% 0.00 in 241 W/m2
12:06 30.5 °F 23.8 °F 30.01 in North 4.0 mph 7.0 mph 76% 0.00 in 169 W/m2
12:12 30.6 °F 24.6 °F 30.01 in WNW 3.0 mph 4.0 mph 78% 0.00 in 258 W/m2
12:18 31.0 °F 23.4 °F 30.01 in NW 3.0 mph 5.0 mph 73% 0.00 in 288 W/m2
12:24 31.4 °F 23.1 °F 30.01 in WNW 3.0 mph 3.0 mph 71% 0.00 in 346 W/m2
12:30 31.3 °F 22.3 °F 30.01 in WNW 3.0 mph 4.0 mph 69% 0.04 in 225 W/m2
12:36 31.4 °F 21.7 °F 30.02 in WNW 3.0 mph 6.0 mph 67% 0.04 in 225 W/m2
12:42 31.3 °F 21.3 °F 30.01 in WNW 4.0 mph 8.0 mph 66% 0.00 in 255 W/m2
12:48 31.2 °F 20.8 °F 30.02 in West 5.0 mph 8.0 mph 65% 0.00 in 181 W/m2
12:54 31.1 °F 21.4 °F 30.02 in NW 4.0 mph 5.0 mph 67% 0.00 in 123 W/m2
13:00 30.8 °F 22.2 °F 30.02 in NNW 4.0 mph 4.0 mph 70% 0.00 in 151 W/m2
13:06 30.3 °F 22.7 °F 30.02 in NW 4.0 mph 4.0 mph 73% 0.00 in 207 W/m2
13:12 30.4 °F 23.1 °F 30.02 in NW 3.0 mph 6.0 mph 74% 0.00 in 299 W/m2
13:18 31.2 °F 23.5 °F 30.02 in NW 3.0 mph 6.0 mph 73% 0.00 in 236 W/m2
13:24 31.4 °F 22.4 °F 30.02 in West 4.0 mph 8.0 mph 69% 0.00 in 251 W/m2
13:30 31.7 °F 21.6 °F 30.02 in SW 4.0 mph 5.0 mph 66% 0.00 in 220 W/m2
13:36 31.8 °F 21.7 °F 30.03 in West 4.0 mph 5.0 mph 66% 0.00 in 239 W/m2
13:42 31.7 °F 22.0 °F 30.02 in WNW 5.0 mph 5.0 mph 67% 0.00 in 220 W/m2
13:48 31.6 °F 22.2 °F 30.03 in WNW 4.0 mph 5.0 mph 68% 0.00 in 232 W/m2
13:54 31.7 °F 22.0 °F 30.03 in WNW 4.0 mph 5.0 mph 67% 0.00 in 274 W/m2
14:00 32.1 °F 22.0 °F 30.03 in NW 4.0 mph 4.0 mph 66% 0.00 in 271 W/m2
14:06 32.2 °F 20.6 °F 30.03 in West 4.0 mph 8.0 mph 62% 0.00 in 211 W/m2
14:12 31.9 °F 20.3 °F 30.04 in WNW 5.0 mph 5.0 mph 62% 0.00 in 158 W/m2
14:18 31.6 °F 19.3 °F 30.04 in NW 5.0 mph 11.0 mph 60% 0.00 in 146 W/m2
14:24 31.4 °F 20.2 °F 30.04 in NW 6.0 mph 6.0 mph 63% 0.00 in 162 W/m2
14:30 31.3 °F 20.5 °F 30.04 in West 5.0 mph 5.0 mph 64% 0.00 in 178 W/m2
14:36 31.5 °F 21.4 °F 30.04 in WNW 4.0 mph 5.0 mph 66% 0.00 in 121 W/m2
14:42 31.4 °F 21.3 °F 30.04 in NW 3.0 mph 5.0 mph 66% 0.00 in 148 W/m2
14:48 31.3 °F 22.3 °F 30.04 in NW 3.0 mph 5.0 mph 69% 0.00 in 109 W/m2
14:54 31.0 °F 22.7 °F 30.04 in NW 2.0 mph 3.0 mph 71% 0.00 in 81 W/m2
15:00 30.9 °F 23.3 °F 30.04 in NW 2.0 mph 3.0 mph 73% 0.00 in 91 W/m2
15:06 30.9 °F 23.6 °F 30.04 in NW 2.0 mph 3.0 mph 74% 0.00 in 192 W/m2
15:12 31.0 °F 24.0 °F 30.04 in NW 2.0 mph 2.0 mph 75% 0.00 in 202 W/m2
15:18 31.1 °F 23.8 °F 30.04 in WNW 1.0 mph 2.0 mph 74% 0.00 in 183 W/m2
15:24 31.4 °F 24.1 °F 30.04 in WNW 2.0 mph 3.0 mph 74% 0.00 in 142 W/m2
15:30 31.4 °F 24.4 °F 30.04 in NNW 2.0 mph 2.0 mph 75% 0.00 in 107 W/m2
15:36 31.4 °F 23.7 °F 30.04 in WNW 2.0 mph 3.0 mph 73% 0.00 in 125 W/m2
15:42 31.6 °F 23.9 °F 30.04 in WNW 2.0 mph 2.0 mph 73% 0.00 in 218 W/m2
15:48 31.9 °F 24.2 °F 30.04 in NNW 2.0 mph 3.0 mph 73% 0.00 in 167 W/m2
15:54 31.9 °F 24.2 °F 30.05 in NNW 3.0 mph 5.0 mph 73% 0.00 in 98 W/m2
16:00 31.9 °F 24.2 °F 30.05 in North 2.0 mph 2.0 mph 73% 0.00 in 132 W/m2
16:06 32.1 °F 23.8 °F 30.05 in North 2.0 mph 2.0 mph 71% 0.00 in 158 W/m2
16:12 32.4 °F 24.0 °F 30.05 in WNW 2.0 mph 2.0 mph 71% 0.00 in 93 W/m2
16:18 32.5 °F 24.1 °F 30.05 in WNW 1.0 mph 2.0 mph 71% 0.00 in 309 W/m2
16:24 32.4 °F 23.7 °F 30.05 in NNW 1.0 mph 5.0 mph 70% 0.00 in 91 W/m2
16:30 32.3 °F 23.6 °F 30.06 in NNW 2.0 mph 3.0 mph 70% 0.00 in 91 W/m2
16:36 32.2 °F 22.5 °F 30.06 in NW 1.0 mph 3.0 mph 67% 0.00 in 81 W/m2
16:42 32.4 °F 21.2 °F 30.06 in WNW 2.0 mph 2.0 mph 63% 0.00 in 67 W/m2
16:48 32.6 °F 21.0 °F 30.06 in West 1.0 mph 2.0 mph 62% 0.00 in 58 W/m2
16:54 32.8 °F 20.0 °F 30.06 in SW 1.0 mph 5.0 mph 59% 0.00 in 53 W/m2
17:00 32.8 °F 19.2 °F 30.06 in NW 2.0 mph 4.0 mph 57% 0.00 in 51 W/m2
17:06 32.9 °F 18.9 °F 30.06 in NW 3.0 mph 4.0 mph 56% 0.00 in 42 W/m2
17:12 33.0 °F 19.4 °F 30.06 in West 2.0 mph 5.0 mph 57% 0.00 in 44 W/m2
17:18 33.1 °F 19.5 °F 30.07 in West 2.0 mph 5.0 mph 57% 0.00 in 46 W/m2
17:24 33.2 °F 18.8 °F 30.07 in SW 2.0 mph 6.0 mph 55% 0.00 in 21 W/m2
17:30 32.9 °F 18.1 °F 30.07 in SW 3.0 mph 3.0 mph 54% 0.00 in 16 W/m2
17:36 32.7 °F 17.9 °F 30.07 in WSW 3.0 mph 6.0 mph 54% 0.00 in 14 W/m2
17:42 32.6 °F 18.2 °F 30.07 in SW 3.0 mph 4.0 mph 55% 0.00 in 11 W/m2
17:48 32.5 °F 18.1 °F 30.08 in SW 3.0 mph 4.0 mph 55% 0.00 in 5 W/m2
17:54 32.3 °F 17.9 °F 30.07 in SSW 3.0 mph 5.0 mph 55% 0.00 in 0 W/m2
18:00 32.1 °F 18.2 °F 30.08 in WSW 2.0 mph 2.0 mph 56% 0.00 in 0 W/m2
18:06 31.9 °F 18.0 °F 30.08 in SSW 1.0 mph 3.0 mph 56% 0.00 in 0 W/m2
18:12 31.8 °F 17.9 °F 30.08 in SW 2.0 mph 2.0 mph 56% 0.00 in 0 W/m2
18:18 31.7 °F 17.8 °F 30.08 in SSW 2.0 mph 2.0 mph 56% 0.00 in 0 W/m2
18:24 31.6 °F 17.7 °F 30.08 in SW 1.0 mph 2.0 mph 56% 0.00 in 0 W/m2
18:30 31.5 °F 17.6 °F 30.08 in SW 2.0 mph 2.0 mph 56% 0.00 in 0 W/m2
18:36 31.3 °F 17.4 °F 30.08 in SW 2.0 mph 4.0 mph 56% 0.00 in 0 W/m2
18:42 31.2 °F 17.7 °F 30.08 in SSW 1.0 mph 3.0 mph 57% 0.00 in 0 W/m2
18:48 31.0 °F 17.9 °F 30.08 in SW 1.0 mph 3.0 mph 58% 0.00 in 0 W/m2
18:54 30.9 °F 17.8 °F 30.07 in SW 1.0 mph 3.0 mph 58% 0.00 in 0 W/m2
19:00 30.8 °F 17.7 °F 30.08 in SW 1.0 mph 1.0 mph 58% 0.00 in 0 W/m2
19:06 30.7 °F 18.1 °F 30.08 in South 1.0 mph 2.0 mph 59% 0.00 in 0 W/m2
19:12 30.5 °F 17.9 °F 30.09 in Calm   1.0 mph 59% 0.00 in 0 W/m2
19:18 30.4 °F 18.2 °F 30.09 in Calm   3.0 mph 60% 0.00 in 0 W/m2
19:24 30.1 °F 18.3 °F 30.08 in South 1.0 mph 2.0 mph 61% 0.00 in 0 W/m2
19:30 30.0 °F 18.5 °F 30.09 in South 1.0 mph 1.0 mph 62% 0.00 in 0 W/m2
19:36 30.0 °F 18.5 °F 30.09 in South 1.0 mph 2.0 mph 62% 0.00 in 0 W/m2
19:42 29.9 °F 18.8 °F 30.09 in South 1.0 mph 2.0 mph 63% 0.00 in 0 W/m2
19:48 29.7 °F 18.6 °F 30.09 in South 1.0 mph 2.0 mph 63% 0.00 in 0 W/m2
19:54 29.4 °F 18.7 °F 30.08 in South 1.0 mph 1.0 mph 64% 0.00 in 0 W/m2
20:00 29.2 °F 18.9 °F 30.08 in South 1.0 mph 1.0 mph 65% 0.00 in 0 W/m2
20:06 28.5 °F 19.3 °F 30.09 in Calm   1.0 mph 68% 0.00 in 0 W/m2
20:12 27.7 °F 18.8 °F 30.09 in Calm     69% 0.00 in 0 W/m2
20:18 27.3 °F 18.8 °F 30.09 in Calm     70% 0.00 in 0 W/m2
20:24 27.1 °F 18.9 °F 30.09 in Calm     71% 0.00 in 0 W/m2
20:30 27.1 °F 18.9 °F 30.09 in Calm     71% 0.00 in 0 W/m2
20:36 27.2 °F 19.0 °F 30.09 in Calm     71% 0.00 in 0 W/m2
20:40 27.3 °F 19.1 °F 30.09 in Calm     71% 0.00 in 0 W/m2
20:46 27.2 °F 19.0 °F 30.10 in Calm     71% 0.00 in 0 W/m2
20:52 27.0 °F 18.8 °F 30.10 in Calm     71% 0.00 in 0 W/m2
20:58 26.8 °F 19.0 °F 30.10 in Calm     72% 0.00 in 0 W/m2
21:04 26.4 °F 18.9 °F 30.10 in Calm     73% 0.00 in 0 W/m2
21:10 26.1 °F 18.6 °F 30.10 in Calm     73% 0.00 in 0 W/m2
21:16 26.0 °F 18.8 °F 30.10 in Calm     74% 0.00 in 0 W/m2
21:22 26.0 °F 18.8 °F 30.10 in Calm   1.0 mph 74% 0.00 in 0 W/m2
21:28 26.1 °F 18.9 °F 30.10 in Calm   1.0 mph 74% 0.00 in 0 W/m2
21:34 26.8 °F 19.3 °F 30.10 in South 1.0 mph 1.0 mph 73% 0.00 in 0 W/m2
21:40 27.3 °F 19.5 °F 30.10 in Calm     72% 0.00 in 0 W/m2
21:46 27.6 °F 19.4 °F 30.10 in Calm   2.0 mph 71% 0.00 in 0 W/m2
21:52 28.2 °F 20.0 °F 30.10 in South 1.0 mph 2.0 mph 71% 0.00 in 0 W/m2
21:58 29.1 °F 19.8 °F 30.10 in South 2.0 mph 2.0 mph 68% 0.00 in 0 W/m2
22:04 29.6 °F 20.0 °F 30.11 in SSW 1.0 mph 3.0 mph 67% 0.00 in 0 W/m2
22:10 29.9 °F 19.9 °F 30.10 in SSW 1.0 mph 2.0 mph 66% 0.00 in 0 W/m2
22:16 30.1 °F 20.1 °F 30.10 in SSW 1.0 mph 2.0 mph 66% 0.00 in 0 W/m2
22:22 30.5 °F 19.8 °F 30.11 in South 2.0 mph 5.0 mph 64% 0.00 in 0 W/m2
22:28 31.1 °F 20.0 °F 30.11 in WSW 3.0 mph 6.0 mph 63% 0.00 in 0 W/m2
22:34 31.6 °F 19.7 °F 30.11 in South 2.0 mph 3.0 mph 61% 0.00 in 0 W/m2
22:40 32.0 °F 19.7 °F 30.10 in SW 3.0 mph 3.0 mph 60% 0.00 in 0 W/m2
22:46 32.1 °F 19.4 °F 30.10 in SSW 2.0 mph 4.0 mph 59% 0.00 in 0 W/m2
22:52 32.0 °F 19.3 °F 30.10 in South 3.0 mph 3.0 mph 59% 0.00 in 0 W/m2
22:58 32.2 °F 19.1 °F 30.10 in SSW 3.0 mph 6.0 mph 58% 0.00 in 0 W/m2
23:04 32.2 °F 19.1 °F 30.10 in SSW 3.0 mph 4.0 mph 58% 0.00 in 0 W/m2
23:10 32.3 °F 18.8 °F 30.10 in South 3.0 mph 3.0 mph 57% 0.00 in 0 W/m2
23:16 32.4 °F 18.8 °F 30.10 in SSW 3.0 mph 4.0 mph 57% 0.00 in 0 W/m2
23:22 32.4 °F 18.8 °F 30.10 in South 3.0 mph 3.0 mph 57% 0.00 in 0 W/m2
23:28 32.2 °F 18.7 °F 30.10 in South 3.0 mph 3.0 mph 57% 0.00 in 0 W/m2
23:34 32.2 °F 19.1 °F 30.10 in South 3.0 mph 3.0 mph 58% 0.00 in 0 W/m2
23:40 32.1 °F 19.0 °F 30.10 in South 2.0 mph 5.0 mph 58% 0.00 in 0 W/m2
23:46 32.5 °F 18.9 °F 30.10 in SSW 3.0 mph 6.0 mph 57% 0.00 in 0 W/m2
23:52 32.6 °F 18.6 °F 30.10 in SSE 3.0 mph 6.0 mph 56% 0.00 in 0 W/m2
23:58 32.7 °F 18.7 °F 30.10 in SW 4.0 mph 6.0 mph 56% 0.00 in 0 W/m2
Country Meadow, Clay, NY, USA
Compliments of Weather Underground - 2 mb